sensor_id;sensor_type;location;lat;lon;timestamp;P1;durP1;ratioP1;P2;durP2;ratioP2
84007;SDS011;74070;50.948;6.954;2024-03-22T00:00:23;24.73;;;16.47;;
84007;SDS011;74070;50.948;6.954;2024-03-22T00:02:49;28.57;;;17.30;;
84007;SDS011;74070;50.948;6.954;2024-03-22T00:05:16;28.60;;;17.43;;
84007;SDS011;74070;50.948;6.954;2024-03-22T00:07:42;26.80;;;17.30;;
84007;SDS011;74070;50.948;6.954;2024-03-22T00:10:09;23.87;;;16.13;;
84007;SDS011;74070;50.948;6.954;2024-03-22T00:12:36;26.97;;;17.40;;
84007;SDS011;74070;50.948;6.954;2024-03-22T00:15:02;26.77;;;17.40;;
84007;SDS011;74070;50.948;6.954;2024-03-22T00:17:29;27.87;;;17.87;;
84007;SDS011;74070;50.948;6.954;2024-03-22T00:19:56;27.83;;;18.00;;
84007;SDS011;74070;50.948;6.954;2024-03-22T00:22:22;26.27;;;17.33;;
84007;SDS011;74070;50.948;6.954;2024-03-22T00:24:49;24.73;;;16.70;;
84007;SDS011;74070;50.948;6.954;2024-03-22T00:27:16;28.33;;;18.40;;
84007;SDS011;74070;50.948;6.954;2024-03-22T00:29:44;25.27;;;16.10;;
84007;SDS011;74070;50.948;6.954;2024-03-22T00:32:11;27.43;;;18.80;;
84007;SDS011;74070;50.948;6.954;2024-03-22T00:34:38;27.53;;;18.60;;
84007;SDS011;74070;50.948;6.954;2024-03-22T00:37:04;26.40;;;17.93;;
84007;SDS011;74070;50.948;6.954;2024-03-22T00:39:31;27.17;;;17.70;;
84007;SDS011;74070;50.948;6.954;2024-03-22T00:41:57;24.07;;;17.17;;
84007;SDS011;74070;50.948;6.954;2024-03-22T00:44:25;24.80;;;17.10;;
84007;SDS011;74070;50.948;6.954;2024-03-22T00:46:52;22.67;;;17.27;;
84007;SDS011;74070;50.948;6.954;2024-03-22T00:49:19;21.33;;;15.67;;
84007;SDS011;74070;50.948;6.954;2024-03-22T00:51:45;26.43;;;17.03;;
84007;SDS011;74070;50.948;6.954;2024-03-22T00:54:12;26.83;;;17.40;;
84007;SDS011;74070;50.948;6.954;2024-03-22T00:56:39;24.50;;;16.70;;
84007;SDS011;74070;50.948;6.954;2024-03-22T00:59:05;23.00;;;17.23;;
84007;SDS011;74070;50.948;6.954;2024-03-22T01:01:32;21.57;;;17.07;;
84007;SDS011;74070;50.948;6.954;2024-03-22T01:03:58;21.07;;;16.63;;
84007;SDS011;74070;50.948;6.954;2024-03-22T01:06:25;28.80;;;17.13;;
84007;SDS011;74070;50.948;6.954;2024-03-22T01:08:52;24.27;;;16.83;;
84007;SDS011;74070;50.948;6.954;2024-03-22T01:11:20;23.70;;;17.23;;
84007;SDS011;74070;50.948;6.954;2024-03-22T01:13:47;22.20;;;16.37;;
84007;SDS011;74070;50.948;6.954;2024-03-22T01:16:14;23.80;;;16.10;;
84007;SDS011;74070;50.948;6.954;2024-03-22T01:18:40;20.70;;;16.20;;
84007;SDS011;74070;50.948;6.954;2024-03-22T01:21:07;21.03;;;16.37;;
84007;SDS011;74070;50.948;6.954;2024-03-22T01:23:34;20.73;;;15.77;;
84007;SDS011;74070;50.948;6.954;2024-03-22T01:26:02;25.30;;;15.97;;
84007;SDS011;74070;50.948;6.954;2024-03-22T01:28:29;21.47;;;15.97;;
84007;SDS011;74070;50.948;6.954;2024-03-22T01:30:55;21.13;;;14.87;;
84007;SDS011;74070;50.948;6.954;2024-03-22T01:33:22;19.93;;;15.60;;
84007;SDS011;74070;50.948;6.954;2024-03-22T01:35:49;19.53;;;15.53;;
84007;SDS011;74070;50.948;6.954;2024-03-22T01:38:16;20.40;;;15.30;;
84007;SDS011;74070;50.948;6.954;2024-03-22T01:40:43;21.87;;;15.47;;
84007;SDS011;74070;50.948;6.954;2024-03-22T01:43:11;21.40;;;15.60;;
84007;SDS011;74070;50.948;6.954;2024-03-22T01:45:37;19.83;;;15.00;;
84007;SDS011;74070;50.948;6.954;2024-03-22T01:48:04;19.30;;;14.23;;
84007;SDS011;74070;50.948;6.954;2024-03-22T01:50:31;22.90;;;15.43;;
84007;SDS011;74070;50.948;6.954;2024-03-22T01:52:57;20.57;;;15.20;;
84007;SDS011;74070;50.948;6.954;2024-03-22T01:55:24;20.47;;;15.10;;
84007;SDS011;74070;50.948;6.954;2024-03-22T01:57:51;19.27;;;14.77;;
84007;SDS011;74070;50.948;6.954;2024-03-22T02:00:17;20.10;;;15.43;;
84007;SDS011;74070;50.948;6.954;2024-03-22T02:02:44;37.27;;;23.70;;
84007;SDS011;74070;50.948;6.954;2024-03-22T02:05:13;24.50;;;16.27;;
84007;SDS011;74070;50.948;6.954;2024-03-22T02:07:40;21.77;;;14.97;;
84007;SDS011;74070;50.948;6.954;2024-03-22T02:10:08;21.00;;;14.73;;
84007;SDS011;74070;50.948;6.954;2024-03-22T02:12:34;18.83;;;14.60;;
84007;SDS011;74070;50.948;6.954;2024-03-22T02:15:01;21.17;;;14.57;;
84007;SDS011;74070;50.948;6.954;2024-03-22T02:17:28;20.40;;;15.20;;
84007;SDS011;74070;50.948;6.954;2024-03-22T02:19:54;23.07;;;16.10;;
84007;SDS011;74070;50.948;6.954;2024-03-22T02:22:21;19.03;;;14.70;;
84007;SDS011;74070;50.948;6.954;2024-03-22T02:24:47;19.63;;;15.40;;
84007;SDS011;74070;50.948;6.954;2024-03-22T02:27:15;18.23;;;14.90;;
84007;SDS011;74070;50.948;6.954;2024-03-22T02:29:42;19.07;;;15.10;;
84007;SDS011;74070;50.948;6.954;2024-03-22T02:32:09;18.67;;;14.20;;
84007;SDS011;74070;50.948;6.954;2024-03-22T02:34:36;23.70;;;14.90;;
84007;SDS011;74070;50.948;6.954;2024-03-22T02:37:02;17.67;;;14.17;;
84007;SDS011;74070;50.948;6.954;2024-03-22T02:39:29;21.30;;;15.53;;
84007;SDS011;74070;50.948;6.954;2024-03-22T02:41:55;18.33;;;13.33;;
84007;SDS011;74070;50.948;6.954;2024-03-22T02:44:23;18.20;;;14.57;;
84007;SDS011;74070;50.948;6.954;2024-03-22T02:46:49;19.27;;;13.37;;
84007;SDS011;74070;50.948;6.954;2024-03-22T02:49:16;18.10;;;13.53;;
84007;SDS011;74070;50.948;6.954;2024-03-22T02:51:42;21.00;;;13.93;;
84007;SDS011;74070;50.948;6.954;2024-03-22T02:54:09;20.23;;;14.53;;
84007;SDS011;74070;50.948;6.954;2024-03-22T02:56:36;16.63;;;13.23;;
84007;SDS011;74070;50.948;6.954;2024-03-22T02:59:03;19.83;;;13.47;;
84007;SDS011;74070;50.948;6.954;2024-03-22T03:01:30;15.63;;;12.33;;
84007;SDS011;74070;50.948;6.954;2024-03-22T03:03:57;18.00;;;13.60;;
84007;SDS011;74070;50.948;6.954;2024-03-22T03:06:24;19.97;;;13.77;;
84007;SDS011;74070;50.948;6.954;2024-03-22T03:08:50;20.83;;;12.27;;
84007;SDS011;74070;50.948;6.954;2024-03-22T03:11:18;17.70;;;13.17;;
84007;SDS011;74070;50.948;6.954;2024-03-22T03:13:45;17.70;;;13.63;;
84007;SDS011;74070;50.948;6.954;2024-03-22T03:16:12;16.47;;;13.10;;
84007;SDS011;74070;50.948;6.954;2024-03-22T03:18:39;15.63;;;12.63;;
84007;SDS011;74070;50.948;6.954;2024-03-22T03:21:05;17.27;;;12.87;;
84007;SDS011;74070;50.948;6.954;2024-03-22T03:23:32;18.27;;;12.53;;
84007;SDS011;74070;50.948;6.954;2024-03-22T03:25:59;18.37;;;13.27;;
84007;SDS011;74070;50.948;6.954;2024-03-22T03:28:25;21.30;;;14.13;;
84007;SDS011;74070;50.948;6.954;2024-03-22T03:30:52;24.93;;;14.97;;
84007;SDS011;74070;50.948;6.954;2024-03-22T03:33:18;19.23;;;13.60;;
84007;SDS011;74070;50.948;6.954;2024-03-22T03:35:46;21.67;;;14.77;;
84007;SDS011;74070;50.948;6.954;2024-03-22T03:38:13;19.13;;;13.60;;
84007;SDS011;74070;50.948;6.954;2024-03-22T03:40:40;19.67;;;12.77;;
84007;SDS011;74070;50.948;6.954;2024-03-22T03:43:06;18.40;;;14.00;;
84007;SDS011;74070;50.948;6.954;2024-03-22T03:45:36;20.00;;;14.53;;
84007;SDS011;74070;50.948;6.954;2024-03-22T03:48:00;16.90;;;13.37;;
84007;SDS011;74070;50.948;6.954;2024-03-22T03:50:27;17.90;;;12.90;;
84007;SDS011;74070;50.948;6.954;2024-03-22T03:52:54;18.40;;;13.83;;
84007;SDS011;74070;50.948;6.954;2024-03-22T03:55:22;20.50;;;13.20;;
84007;SDS011;74070;50.948;6.954;2024-03-22T03:57:50;16.60;;;12.97;;
84007;SDS011;74070;50.948;6.954;2024-03-22T04:00:19;19.77;;;13.27;;
84007;SDS011;74070;50.948;6.954;2024-03-22T04:02:45;19.87;;;13.73;;
84007;SDS011;74070;50.948;6.954;2024-03-22T04:05:11;19.87;;;13.07;;
84007;SDS011;74070;50.948;6.954;2024-03-22T04:07:38;18.90;;;12.87;;
84007;SDS011;74070;50.948;6.954;2024-03-22T04:10:05;19.77;;;13.67;;
84007;SDS011;74070;50.948;6.954;2024-03-22T04:12:32;18.27;;;12.83;;
84007;SDS011;74070;50.948;6.954;2024-03-22T04:14:59;20.00;;;13.20;;
84007;SDS011;74070;50.948;6.954;2024-03-22T04:17:25;20.10;;;13.17;;
84007;SDS011;74070;50.948;6.954;2024-03-22T04:19:52;17.33;;;13.50;;
84007;SDS011;74070;50.948;6.954;2024-03-22T04:22:19;20.03;;;15.00;;
84007;SDS011;74070;50.948;6.954;2024-03-22T04:24:47;19.07;;;13.83;;
84007;SDS011;74070;50.948;6.954;2024-03-22T04:27:14;20.10;;;14.00;;
84007;SDS011;74070;50.948;6.954;2024-03-22T04:29:41;19.63;;;13.57;;
84007;SDS011;74070;50.948;6.954;2024-03-22T04:32:08;19.23;;;14.27;;
84007;SDS011;74070;50.948;6.954;2024-03-22T04:34:35;23.27;;;14.63;;
84007;SDS011;74070;50.948;6.954;2024-03-22T04:37:01;22.77;;;14.60;;
84007;SDS011;74070;50.948;6.954;2024-03-22T04:39:28;19.60;;;14.37;;
84007;SDS011;74070;50.948;6.954;2024-03-22T04:41:54;23.20;;;15.37;;
84007;SDS011;74070;50.948;6.954;2024-03-22T04:44:22;21.93;;;14.20;;
84007;SDS011;74070;50.948;6.954;2024-03-22T04:46:48;18.33;;;14.03;;
84007;SDS011;74070;50.948;6.954;2024-03-22T04:49:15;19.07;;;12.97;;
84007;SDS011;74070;50.948;6.954;2024-03-22T04:51:42;18.20;;;13.57;;
84007;SDS011;74070;50.948;6.954;2024-03-22T04:54:09;17.60;;;13.20;;
84007;SDS011;74070;50.948;6.954;2024-03-22T04:56:35;19.40;;;12.93;;
84007;SDS011;74070;50.948;6.954;2024-03-22T04:59:02;18.47;;;12.57;;
84007;SDS011;74070;50.948;6.954;2024-03-22T05:01:29;20.43;;;13.00;;
84007;SDS011;74070;50.948;6.954;2024-03-22T05:03:55;18.73;;;13.60;;
84007;SDS011;74070;50.948;6.954;2024-03-22T05:06:23;17.97;;;13.37;;
84007;SDS011;74070;50.948;6.954;2024-03-22T05:08:50;17.50;;;13.20;;
84007;SDS011;74070;50.948;6.954;2024-03-22T05:11:17;17.27;;;14.20;;
84007;SDS011;74070;50.948;6.954;2024-03-22T05:13:45;17.80;;;13.20;;
84007;SDS011;74070;50.948;6.954;2024-03-22T05:16:12;17.93;;;12.67;;
84007;SDS011;74070;50.948;6.954;2024-03-22T05:18:39;19.43;;;12.63;;
84007;SDS011;74070;50.948;6.954;2024-03-22T05:21:05;19.47;;;12.40;;
84007;SDS011;74070;50.948;6.954;2024-03-22T05:23:32;18.37;;;13.13;;
84007;SDS011;74070;50.948;6.954;2024-03-22T05:25:58;17.63;;;12.77;;
84007;SDS011;74070;50.948;6.954;2024-03-22T05:28:25;15.57;;;12.00;;
84007;SDS011;74070;50.948;6.954;2024-03-22T05:30:52;18.03;;;12.27;;
84007;SDS011;74070;50.948;6.954;2024-03-22T05:33:18;17.40;;;11.77;;
84007;SDS011;74070;50.948;6.954;2024-03-22T05:35:45;16.27;;;11.37;;
84007;SDS011;74070;50.948;6.954;2024-03-22T05:38:11;19.77;;;12.00;;
84007;SDS011;74070;50.948;6.954;2024-03-22T05:40:38;21.87;;;13.00;;
84007;SDS011;74070;50.948;6.954;2024-03-22T05:43:05;20.50;;;13.00;;
84007;SDS011;74070;50.948;6.954;2024-03-22T05:45:33;18.10;;;12.87;;
84007;SDS011;74070;50.948;6.954;2024-03-22T05:47:59;15.13;;;12.17;;
84007;SDS011;74070;50.948;6.954;2024-03-22T05:50:26;14.80;;;11.80;;
84007;SDS011;74070;50.948;6.954;2024-03-22T05:52:52;21.00;;;12.33;;
84007;SDS011;74070;50.948;6.954;2024-03-22T05:55:20;18.33;;;11.23;;
84007;SDS011;74070;50.948;6.954;2024-03-22T05:57:47;19.00;;;12.13;;
84007;SDS011;74070;50.948;6.954;2024-03-22T06:00:15;16.97;;;11.10;;
84007;SDS011;74070;50.948;6.954;2024-03-22T06:02:41;16.30;;;10.40;;
84007;SDS011;74070;50.948;6.954;2024-03-22T06:05:09;17.77;;;10.50;;
84007;SDS011;74070;50.948;6.954;2024-03-22T06:07:35;17.17;;;10.37;;
84007;SDS011;74070;50.948;6.954;2024-03-22T06:10:02;16.27;;;10.73;;
84007;SDS011;74070;50.948;6.954;2024-03-22T06:12:29;16.90;;;10.63;;
84007;SDS011;74070;50.948;6.954;2024-03-22T06:14:55;14.40;;;10.20;;
84007;SDS011;74070;50.948;6.954;2024-03-22T06:17:22;17.90;;;10.73;;
84007;SDS011;74070;50.948;6.954;2024-03-22T06:19:48;15.67;;;10.77;;
84007;SDS011;74070;50.948;6.954;2024-03-22T06:22:16;14.13;;;10.00;;
84007;SDS011;74070;50.948;6.954;2024-03-22T06:24:44;15.37;;;10.40;;
84007;SDS011;74070;50.948;6.954;2024-03-22T06:27:10;17.70;;;11.53;;
84007;SDS011;74070;50.948;6.954;2024-03-22T06:29:36;15.40;;;11.00;;
84007;SDS011;74070;50.948;6.954;2024-03-22T06:32:03;15.97;;;10.37;;
84007;SDS011;74070;50.948;6.954;2024-03-22T06:34:30;18.57;;;11.20;;
84007;SDS011;74070;50.948;6.954;2024-03-22T06:36:58;16.20;;;10.97;;
84007;SDS011;74070;50.948;6.954;2024-03-22T06:39:24;13.87;;;10.27;;
84007;SDS011;74070;50.948;6.954;2024-03-22T06:41:51;18.17;;;11.67;;
84007;SDS011;74070;50.948;6.954;2024-03-22T06:44:17;20.97;;;11.67;;
84007;SDS011;74070;50.948;6.954;2024-03-22T06:46:45;18.47;;;11.07;;
84007;SDS011;74070;50.948;6.954;2024-03-22T06:49:12;21.07;;;12.17;;
84007;SDS011;74070;50.948;6.954;2024-03-22T06:51:39;21.20;;;11.80;;
84007;SDS011;74070;50.948;6.954;2024-03-22T06:54:06;15.37;;;11.50;;
84007;SDS011;74070;50.948;6.954;2024-03-22T06:56:33;17.37;;;11.80;;
84007;SDS011;74070;50.948;6.954;2024-03-22T06:58:59;18.70;;;11.00;;
84007;SDS011;74070;50.948;6.954;2024-03-22T07:01:27;18.07;;;12.07;;
84007;SDS011;74070;50.948;6.954;2024-03-22T07:03:53;16.00;;;10.63;;
84007;SDS011;74070;50.948;6.954;2024-03-22T07:06:20;16.60;;;10.30;;
84007;SDS011;74070;50.948;6.954;2024-03-22T07:08:46;17.27;;;11.33;;
84007;SDS011;74070;50.948;6.954;2024-03-22T07:11:14;19.80;;;10.23;;
84007;SDS011;74070;50.948;6.954;2024-03-22T07:13:41;21.00;;;10.80;;
84007;SDS011;74070;50.948;6.954;2024-03-22T07:16:08;13.40;;;10.77;;
84007;SDS011;74070;50.948;6.954;2024-03-22T07:18:35;16.53;;;10.63;;
84007;SDS011;74070;50.948;6.954;2024-03-22T07:21:02;19.10;;;10.33;;
84007;SDS011;74070;50.948;6.954;2024-03-22T07:23:28;15.20;;;10.10;;
84007;SDS011;74070;50.948;6.954;2024-03-22T07:25:55;16.93;;;9.93;;
84007;SDS011;74070;50.948;6.954;2024-03-22T07:28:22;13.93;;;10.10;;
84007;SDS011;74070;50.948;6.954;2024-03-22T07:30:50;12.67;;;10.23;;
84007;SDS011;74070;50.948;6.954;2024-03-22T07:33:16;16.00;;;10.63;;
84007;SDS011;74070;50.948;6.954;2024-03-22T07:35:43;12.63;;;9.70;;
84007;SDS011;74070;50.948;6.954;2024-03-22T07:38:10;15.23;;;10.17;;
84007;SDS011;74070;50.948;6.954;2024-03-22T07:40:36;15.43;;;10.23;;
84007;SDS011;74070;50.948;6.954;2024-03-22T07:43:03;19.30;;;10.90;;
84007;SDS011;74070;50.948;6.954;2024-03-22T07:45:29;19.90;;;11.60;;
84007;SDS011;74070;50.948;6.954;2024-03-22T07:47:56;16.67;;;10.40;;
84007;SDS011;74070;50.948;6.954;2024-03-22T07:50:22;18.33;;;11.37;;
84007;SDS011;74070;50.948;6.954;2024-03-22T07:52:50;20.63;;;11.10;;
84007;SDS011;74070;50.948;6.954;2024-03-22T07:55:17;19.50;;;12.60;;
84007;SDS011;74070;50.948;6.954;2024-03-22T07:57:45;20.90;;;12.03;;
84007;SDS011;74070;50.948;6.954;2024-03-22T08:00:11;17.93;;;10.83;;
84007;SDS011;74070;50.948;6.954;2024-03-22T08:02:38;18.50;;;11.20;;
84007;SDS011;74070;50.948;6.954;2024-03-22T08:05:06;20.37;;;12.10;;
84007;SDS011;74070;50.948;6.954;2024-03-22T08:07:33;24.47;;;11.07;;
84007;SDS011;74070;50.948;6.954;2024-03-22T08:10:00;21.20;;;11.77;;
84007;SDS011;74070;50.948;6.954;2024-03-22T08:12:26;22.70;;;11.97;;
84007;SDS011;74070;50.948;6.954;2024-03-22T08:14:53;17.47;;;12.27;;
84007;SDS011;74070;50.948;6.954;2024-03-22T08:17:19;17.33;;;12.20;;
84007;SDS011;74070;50.948;6.954;2024-03-22T08:19:47;17.27;;;12.00;;
84007;SDS011;74070;50.948;6.954;2024-03-22T08:22:13;15.67;;;12.47;;
84007;SDS011;74070;50.948;6.954;2024-03-22T08:24:41;23.17;;;12.77;;
84007;SDS011;74070;50.948;6.954;2024-03-22T08:27:07;16.00;;;11.87;;
84007;SDS011;74070;50.948;6.954;2024-03-22T08:29:34;21.60;;;12.53;;
84007;SDS011;74070;50.948;6.954;2024-03-22T08:32:01;16.53;;;12.37;;
84007;SDS011;74070;50.948;6.954;2024-03-22T08:34:28;17.30;;;13.03;;
84007;SDS011;74070;50.948;6.954;2024-03-22T08:36:55;20.83;;;11.77;;
84007;SDS011;74070;50.948;6.954;2024-03-22T08:39:23;15.17;;;11.37;;
84007;SDS011;74070;50.948;6.954;2024-03-22T08:41:49;15.13;;;12.00;;
84007;SDS011;74070;50.948;6.954;2024-03-22T08:44:16;17.63;;;11.30;;
84007;SDS011;74070;50.948;6.954;2024-03-22T08:46:43;17.00;;;11.63;;
84007;SDS011;74070;50.948;6.954;2024-03-22T08:49:10;14.63;;;11.67;;
84007;SDS011;74070;50.948;6.954;2024-03-22T08:51:36;16.03;;;11.00;;
84007;SDS011;74070;50.948;6.954;2024-03-22T08:54:03;16.80;;;10.53;;
84007;SDS011;74070;50.948;6.954;2024-03-22T08:56:29;16.77;;;11.87;;
84007;SDS011;74070;50.948;6.954;2024-03-22T08:58:56;16.40;;;11.83;;
84007;SDS011;74070;50.948;6.954;2024-03-22T09:01:23;14.53;;;9.63;;
84007;SDS011;74070;50.948;6.954;2024-03-22T09:03:49;11.10;;;8.43;;
84007;SDS011;74070;50.948;6.954;2024-03-22T09:06:16;13.23;;;8.97;;
84007;SDS011;74070;50.948;6.954;2024-03-22T09:08:42;11.23;;;7.53;;
84007;SDS011;74070;50.948;6.954;2024-03-22T09:11:09;12.33;;;8.20;;
84007;SDS011;74070;50.948;6.954;2024-03-22T09:13:36;10.17;;;7.43;;
84007;SDS011;74070;50.948;6.954;2024-03-22T09:16:02;11.73;;;7.83;;
84007;SDS011;74070;50.948;6.954;2024-03-22T09:18:29;13.07;;;7.83;;
84007;SDS011;74070;50.948;6.954;2024-03-22T09:20:56;9.27;;;7.70;;
84007;SDS011;74070;50.948;6.954;2024-03-22T09:23:22;11.07;;;7.27;;
84007;SDS011;74070;50.948;6.954;2024-03-22T09:25:50;9.50;;;6.63;;
84007;SDS011;74070;50.948;6.954;2024-03-22T09:28:17;11.00;;;6.00;;
84007;SDS011;74070;50.948;6.954;2024-03-22T09:30:43;11.90;;;5.20;;
84007;SDS011;74070;50.948;6.954;2024-03-22T09:33:10;8.57;;;6.20;;
84007;SDS011;74070;50.948;6.954;2024-03-22T09:35:37;6.90;;;5.20;;
84007;SDS011;74070;50.948;6.954;2024-03-22T09:38:03;6.30;;;5.20;;
84007;SDS011;74070;50.948;6.954;2024-03-22T09:40:30;6.33;;;4.57;;
84007;SDS011;74070;50.948;6.954;2024-03-22T09:43:00;8.17;;;5.07;;
84007;SDS011;74070;50.948;6.954;2024-03-22T09:45:23;7.27;;;4.93;;
84007;SDS011;74070;50.948;6.954;2024-03-22T09:47:50;7.27;;;5.43;;
84007;SDS011;74070;50.948;6.954;2024-03-22T09:50:16;7.27;;;4.77;;
84007;SDS011;74070;50.948;6.954;2024-03-22T09:52:43;6.10;;;4.37;;
84007;SDS011;74070;50.948;6.954;2024-03-22T09:55:09;7.37;;;4.47;;
84007;SDS011;74070;50.948;6.954;2024-03-22T09:57:37;6.63;;;4.00;;
84007;SDS011;74070;50.948;6.954;2024-03-22T10:00:05;13.57;;;4.50;;
84007;SDS011;74070;50.948;6.954;2024-03-22T10:02:32;6.53;;;3.33;;
84007;SDS011;74070;50.948;6.954;2024-03-22T10:04:59;6.40;;;4.20;;
84007;SDS011;74070;50.948;6.954;2024-03-22T10:07:26;7.83;;;4.63;;
84007;SDS011;74070;50.948;6.954;2024-03-22T10:09:52;5.57;;;3.53;;
84007;SDS011;74070;50.948;6.954;2024-03-22T10:12:19;7.13;;;4.00;;
84007;SDS011;74070;50.948;6.954;2024-03-22T10:14:46;8.27;;;4.30;;
84007;SDS011;74070;50.948;6.954;2024-03-22T10:17:12;12.30;;;4.50;;
84007;SDS011;74070;50.948;6.954;2024-03-22T10:19:39;9.77;;;4.10;;
84007;SDS011;74070;50.948;6.954;2024-03-22T10:22:07;5.13;;;4.03;;
84007;SDS011;74070;50.948;6.954;2024-03-22T10:24:33;7.50;;;4.30;;
84007;SDS011;74070;50.948;6.954;2024-03-22T10:27:00;9.33;;;4.50;;
84007;SDS011;74070;50.948;6.954;2024-03-22T10:29:27;6.47;;;4.57;;
84007;SDS011;74070;50.948;6.954;2024-03-22T10:31:55;10.97;;;4.80;;
84007;SDS011;74070;50.948;6.954;2024-03-22T10:34:22;8.20;;;4.77;;
84007;SDS011;74070;50.948;6.954;2024-03-22T10:36:48;10.60;;;5.03;;
84007;SDS011;74070;50.948;6.954;2024-03-22T10:39:17;10.30;;;5.20;;
84007;SDS011;74070;50.948;6.954;2024-03-22T10:41:45;10.77;;;4.60;;
84007;SDS011;74070;50.948;6.954;2024-03-22T10:44:12;7.70;;;4.80;;
84007;SDS011;74070;50.948;6.954;2024-03-22T10:46:41;7.20;;;4.57;;
84007;SDS011;74070;50.948;6.954;2024-03-22T10:49:06;9.30;;;4.50;;
84007;SDS011;74070;50.948;6.954;2024-03-22T10:51:32;9.00;;;5.47;;
84007;SDS011;74070;50.948;6.954;2024-03-22T10:53:59;9.07;;;5.63;;
84007;SDS011;74070;50.948;6.954;2024-03-22T10:56:25;9.60;;;6.20;;
84007;SDS011;74070;50.948;6.954;2024-03-22T10:58:52;9.10;;;6.17;;
84007;SDS011;74070;50.948;6.954;2024-03-22T11:01:23;9.63;;;5.63;;
84007;SDS011;74070;50.948;6.954;2024-03-22T11:03:50;11.43;;;5.50;;
84007;SDS011;74070;50.948;6.954;2024-03-22T11:06:17;7.80;;;5.00;;
84007;SDS011;74070;50.948;6.954;2024-03-22T11:08:44;10.37;;;5.67;;
84007;SDS011;74070;50.948;6.954;2024-03-22T11:11:10;10.67;;;6.37;;
84007;SDS011;74070;50.948;6.954;2024-03-22T11:13:38;8.87;;;6.47;;
84007;SDS011;74070;50.948;6.954;2024-03-22T11:16:06;11.97;;;6.50;;
84007;SDS011;74070;50.948;6.954;2024-03-22T11:18:33;11.17;;;7.57;;
84007;SDS011;74070;50.948;6.954;2024-03-22T11:20:59;10.43;;;6.53;;
84007;SDS011;74070;50.948;6.954;2024-03-22T11:23:26;10.10;;;7.27;;
84007;SDS011;74070;50.948;6.954;2024-03-22T11:25:53;10.00;;;7.03;;
84007;SDS011;74070;50.948;6.954;2024-03-22T11:28:19;9.87;;;7.47;;
84007;SDS011;74070;50.948;6.954;2024-03-22T11:30:46;20.00;;;7.87;;
84007;SDS011;74070;50.948;6.954;2024-03-22T11:33:13;15.93;;;7.50;;
84007;SDS011;74070;50.948;6.954;2024-03-22T11:35:40;15.80;;;7.53;;
84007;SDS011;74070;50.948;6.954;2024-03-22T11:38:06;11.10;;;8.00;;
84007;SDS011;74070;50.948;6.954;2024-03-22T11:40:33;10.47;;;7.50;;
84007;SDS011;74070;50.948;6.954;2024-03-22T11:43:00;12.40;;;8.07;;
84007;SDS011;74070;50.948;6.954;2024-03-22T11:45:26;17.77;;;8.07;;
84007;SDS011;74070;50.948;6.954;2024-03-22T11:47:53;10.67;;;7.87;;
84007;SDS011;74070;50.948;6.954;2024-03-22T11:50:19;12.80;;;8.20;;
84007;SDS011;74070;50.948;6.954;2024-03-22T11:52:46;10.00;;;7.70;;
84007;SDS011;74070;50.948;6.954;2024-03-22T11:55:13;10.07;;;7.37;;
84007;SDS011;74070;50.948;6.954;2024-03-22T11:57:39;12.10;;;7.47;;
84007;SDS011;74070;50.948;6.954;2024-03-22T12:00:06;13.43;;;7.00;;
84007;SDS011;74070;50.948;6.954;2024-03-22T12:02:35;10.07;;;7.63;;
84007;SDS011;74070;50.948;6.954;2024-03-22T12:05:01;10.93;;;7.33;;
84007;SDS011;74070;50.948;6.954;2024-03-22T12:07:29;9.47;;;6.93;;
84007;SDS011;74070;50.948;6.954;2024-03-22T12:09:55;11.87;;;7.80;;
84007;SDS011;74070;50.948;6.954;2024-03-22T12:12:23;12.63;;;7.67;;
84007;SDS011;74070;50.948;6.954;2024-03-22T12:14:49;18.73;;;8.90;;
84007;SDS011;74070;50.948;6.954;2024-03-22T12:17:16;12.77;;;8.63;;
84007;SDS011;74070;50.948;6.954;2024-03-22T12:19:43;11.77;;;8.00;;
84007;SDS011;74070;50.948;6.954;2024-03-22T12:22:09;11.17;;;7.83;;
84007;SDS011;74070;50.948;6.954;2024-03-22T12:24:36;10.30;;;6.77;;
84007;SDS011;74070;50.948;6.954;2024-03-22T12:27:02;10.63;;;7.93;;
84007;SDS011;74070;50.948;6.954;2024-03-22T12:29:32;10.17;;;7.60;;
84007;SDS011;74070;50.948;6.954;2024-03-22T12:31:58;12.33;;;8.50;;
84007;SDS011;74070;50.948;6.954;2024-03-22T12:34:25;13.43;;;8.70;;
84007;SDS011;74070;50.948;6.954;2024-03-22T12:36:51;12.80;;;8.43;;
84007;SDS011;74070;50.948;6.954;2024-03-22T12:39:18;12.07;;;7.67;;
84007;SDS011;74070;50.948;6.954;2024-03-22T12:41:44;11.77;;;8.53;;
84007;SDS011;74070;50.948;6.954;2024-03-22T12:44:11;13.90;;;8.87;;
84007;SDS011;74070;50.948;6.954;2024-03-22T12:46:38;10.83;;;7.50;;
84007;SDS011;74070;50.948;6.954;2024-03-22T12:49:05;10.77;;;7.67;;
84007;SDS011;74070;50.948;6.954;2024-03-22T12:51:32;11.87;;;7.80;;
84007;SDS011;74070;50.948;6.954;2024-03-22T12:53:58;14.00;;;8.17;;
84007;SDS011;74070;50.948;6.954;2024-03-22T12:56:25;8.50;;;6.93;;
84007;SDS011;74070;50.948;6.954;2024-03-22T12:58:51;11.33;;;7.47;;
84007;SDS011;74070;50.948;6.954;2024-03-22T13:01:18;7.93;;;6.50;;
84007;SDS011;74070;50.948;6.954;2024-03-22T13:03:45;11.10;;;7.70;;
84007;SDS011;74070;50.948;6.954;2024-03-22T13:06:13;8.97;;;6.93;;
84007;SDS011;74070;50.948;6.954;2024-03-22T13:08:39;8.93;;;6.50;;
84007;SDS011;74070;50.948;6.954;2024-03-22T13:11:07;11.83;;;7.77;;
84007;SDS011;74070;50.948;6.954;2024-03-22T13:13:35;9.17;;;6.73;;
84007;SDS011;74070;50.948;6.954;2024-03-22T13:16:01;14.70;;;8.00;;
84007;SDS011;74070;50.948;6.954;2024-03-22T13:18:28;10.73;;;7.90;;
84007;SDS011;74070;50.948;6.954;2024-03-22T13:20:55;12.67;;;8.07;;
84007;SDS011;74070;50.948;6.954;2024-03-22T13:23:21;10.77;;;8.17;;
84007;SDS011;74070;50.948;6.954;2024-03-22T13:25:49;13.13;;;8.93;;
84007;SDS011;74070;50.948;6.954;2024-03-22T13:28:15;13.77;;;8.53;;
84007;SDS011;74070;50.948;6.954;2024-03-22T13:30:43;12.10;;;8.80;;
84007;SDS011;74070;50.948;6.954;2024-03-22T13:33:09;18.07;;;12.60;;
84007;SDS011;74070;50.948;6.954;2024-03-22T13:35:36;16.27;;;10.17;;
84007;SDS011;74070;50.948;6.954;2024-03-22T13:38:03;11.93;;;8.83;;
84007;SDS011;74070;50.948;6.954;2024-03-22T13:40:29;12.10;;;9.23;;
84007;SDS011;74070;50.948;6.954;2024-03-22T13:42:56;12.07;;;10.37;;
84007;SDS011;74070;50.948;6.954;2024-03-22T13:45:22;14.03;;;9.43;;
84007;SDS011;74070;50.948;6.954;2024-03-22T13:47:49;13.00;;;9.00;;
84007;SDS011;74070;50.948;6.954;2024-03-22T13:50:16;13.30;;;9.17;;
84007;SDS011;74070;50.948;6.954;2024-03-22T13:52:43;12.00;;;9.50;;
84007;SDS011;74070;50.948;6.954;2024-03-22T13:55:10;16.30;;;10.20;;
84007;SDS011;74070;50.948;6.954;2024-03-22T13:57:37;15.73;;;9.40;;
84007;SDS011;74070;50.948;6.954;2024-03-22T14:00:05;17.53;;;10.57;;
84007;SDS011;74070;50.948;6.954;2024-03-22T14:02:32;15.30;;;10.23;;
84007;SDS011;74070;50.948;6.954;2024-03-22T14:04:58;11.40;;;10.13;;
84007;SDS011;74070;50.948;6.954;2024-03-22T14:07:25;12.40;;;9.43;;
84007;SDS011;74070;50.948;6.954;2024-03-22T14:09:52;13.47;;;10.80;;
84007;SDS011;74070;50.948;6.954;2024-03-22T14:12:19;14.07;;;9.90;;
84007;SDS011;74070;50.948;6.954;2024-03-22T14:14:45;12.63;;;10.23;;
84007;SDS011;74070;50.948;6.954;2024-03-22T14:17:12;15.03;;;10.00;;
84007;SDS011;74070;50.948;6.954;2024-03-22T14:19:39;17.17;;;10.53;;
84007;SDS011;74070;50.948;6.954;2024-03-22T14:22:05;15.47;;;11.23;;
84007;SDS011;74070;50.948;6.954;2024-03-22T14:24:33;14.30;;;9.83;;